Terminal Aerodrome Forecast
Issued by NWS Sterling, VA

Home | Current Version | Previous Version | Text Only | Print | Product List | Glossary On
Versions: 1 2 3 4 5 6 7 8 9 10 11 12 13 14 15 16 17 18 19 20 21
000
FTUS41 KLWX 010529
TAFCHO
TAF
KCHO 010529Z 0106/0206 14005KT 3SM -RA BR OVC015
     FM010900 14004KT 3SM -RA BR OVC008
     FM011500 18006KT 6SM BR OVC015
     FM012100 20007KT P6SM -SHRA VCTS BKN040CB
     FM020000 19005KT 6SM -SHRA BR VCTS BKN050CB
     FM020300 19005KT 3SM -SHRA BR OVC045=

USA.gov is the U.S. government's official web portal to all federal, state and local government web resources and services.